createdAt,value
2023-02-15T00:01:53.549Z,2.73
2023-02-15T00:04:44.982Z,2.80
2023-02-15T00:07:15.964Z,2.30
2023-02-15T00:09:49.329Z,2.15
2023-02-15T00:12:17.566Z,2.56
2023-02-15T00:14:45.684Z,2.85
2023-02-15T00:17:14.819Z,2.70
2023-02-15T00:19:42.724Z,2.50
2023-02-15T00:22:10.857Z,2.77
2023-02-15T00:24:43.686Z,2.59
2023-02-15T00:27:13.987Z,2.29
2023-02-15T00:29:41.846Z,2.46
2023-02-15T00:32:09.475Z,2.34
2023-02-15T00:34:39.541Z,2.04
2023-02-15T00:37:07.537Z,2.06
2023-02-15T00:39:35.305Z,1.90
2023-02-15T00:42:03.075Z,2.08
2023-02-15T00:44:31.147Z,1.52
2023-02-15T00:46:59.081Z,1.83
2023-02-15T00:49:26.921Z,1.49
2023-02-15T00:51:55.528Z,2.21
2023-02-15T00:54:26.062Z,2.39
2023-02-15T00:56:56.571Z,2.56
2023-02-15T00:59:24.366Z,2.49
2023-02-15T01:01:52.498Z,2.41
2023-02-15T01:04:21.159Z,2.58
2023-02-15T01:06:49.336Z,2.45
2023-02-15T01:09:19.485Z,2.64
2023-02-15T01:11:47.390Z,2.41
2023-02-15T01:14:15.614Z,2.46
2023-02-15T01:16:43.421Z,2.27
2023-02-15T01:19:13.721Z,2.09
2023-02-15T01:21:44.102Z,1.96
2023-02-15T01:24:14.898Z,2.31
2023-02-15T01:26:42.655Z,2.42
2023-02-15T01:29:10.400Z,1.98
2023-02-15T01:31:40.074Z,1.67
2023-02-15T01:34:08.102Z,2.19
2023-02-15T01:36:36.293Z,1.68
2023-02-15T01:39:04.127Z,1.65
2023-02-15T01:41:34.831Z,1.79
2023-02-15T01:44:04.323Z,2.07
2023-02-15T01:50:57.579Z,1.99
2023-02-15T01:54:32.254Z,1.78
2023-02-15T01:57:09.919Z,1.83
2023-02-15T01:59:47.347Z,1.83
2023-02-15T02:02:17.606Z,1.20
2023-02-15T02:04:56.467Z,1.44
2023-02-15T02:07:30.174Z,1.40
2023-02-15T02:10:02.208Z,1.35
2023-02-15T02:12:34.603Z,1.43
2023-02-15T02:15:02.881Z,1.34
2023-02-15T02:17:48.324Z,1.54
2023-02-15T02:20:33.274Z,1.57
2023-02-15T02:23:31.715Z,1.09
2023-02-15T02:26:49.345Z,1.07
2023-02-15T02:30:07.456Z,1.11
2023-02-15T02:33:14.534Z,1.58
2023-02-15T02:36:09.076Z,1.69
2023-02-15T02:39:16.252Z,1.60
2023-02-15T02:42:23.563Z,2.09
2023-02-15T02:45:02.980Z,2.20
2023-02-15T02:47:48.505Z,2.15
2023-02-15T02:50:23.764Z,1.80
2023-02-15T02:52:54.826Z,1.87
2023-02-15T02:56:07.018Z,2.04
2023-02-15T02:58:46.782Z,1.58
2023-02-15T03:01:40.380Z,1.75
2023-02-15T03:04:36.467Z,1.91
2023-02-15T03:07:15.367Z,1.83
2023-02-15T03:09:49.263Z,2.12
2023-02-15T03:12:32.238Z,2.05
2023-02-15T03:15:13.827Z,1.45
2023-02-15T03:17:49.398Z,1.56
2023-02-15T03:20:28.572Z,1.55
2023-02-15T03:23:07.356Z,1.31
2023-02-15T03:25:47.218Z,1.27
2023-02-15T03:28:21.944Z,1.25
2023-02-15T03:30:56.553Z,1.14
2023-02-15T03:33:26.965Z,1.25
2023-02-15T03:36:39.299Z,1.35
2023-02-15T03:39:43.092Z,1.57
2023-02-15T03:42:36.478Z,1.61
2023-02-15T03:45:14.949Z,1.69
2023-02-15T03:47:47.959Z,1.57
2023-02-15T03:50:51.994Z,1.74
2023-02-15T03:53:24.547Z,1.11
2023-02-15T03:55:56.424Z,1.04
2023-02-15T03:58:45.688Z,0.95
2023-02-15T04:01:58.677Z,1.04
2023-02-15T04:04:38.109Z,0.46
2023-02-15T04:07:20.565Z,0.56
2023-02-15T04:10:06.966Z,1.13
2023-02-15T04:12:34.624Z,1.34
2023-02-15T04:15:20.901Z,0.90
2023-02-15T04:17:48.550Z,1.04
2023-02-15T04:20:35.276Z,1.00
2023-02-15T04:23:27.203Z,0.39
2023-02-15T04:25:56.991Z,0.54
2023-02-15T04:28:24.929Z,0.24
2023-02-15T04:30:59.902Z,-0.08
2023-02-15T04:33:44.860Z,0.11
2023-02-15T04:36:12.717Z,0.21
2023-02-15T04:38:40.331Z,0.54
2023-02-15T04:41:08.036Z,0.14
2023-02-15T04:43:35.762Z,0.34
2023-02-15T04:46:04.004Z,0.59
2023-02-15T04:48:32.036Z,0.75
2023-02-15T04:51:00.082Z,1.05
2023-02-15T04:53:27.743Z,1.16
2023-02-15T04:55:55.541Z,1.33
2023-02-15T04:58:23.437Z,0.48
2023-02-15T05:00:51.351Z,0.45
2023-02-15T05:03:21.648Z,1.02
2023-02-15T05:05:56.662Z,0.29
2023-02-15T05:08:24.623Z,0.56
2023-02-15T05:10:52.455Z,1.10
2023-02-15T05:13:22.723Z,1.48
2023-02-15T05:15:54.140Z,1.52
2023-02-15T05:18:23.804Z,1.42
2023-02-15T05:20:54.883Z,1.89
2023-02-15T05:23:24.829Z,1.78
2023-02-15T05:26:11.117Z,1.84
2023-02-15T05:28:39.761Z,1.88
2023-02-15T05:31:20.084Z,0.93
2023-02-15T05:33:48.530Z,0.85
2023-02-15T05:36:16.376Z,0.93
2023-02-15T05:38:46.589Z,1.16
2023-02-15T05:41:14.472Z,1.03
2023-02-15T05:43:43.176Z,1.39
2023-02-15T05:46:12.821Z,1.35
2023-02-15T05:48:45.383Z,1.53
2023-02-15T05:51:16.838Z,1.63
2023-02-15T05:53:47.442Z,1.70
2023-02-15T05:56:15.203Z,1.70
2023-02-15T05:58:47.807Z,2.10
2023-02-15T06:01:19.710Z,2.10
2023-02-15T06:03:47.653Z,2.14
2023-02-15T06:06:16.402Z,2.18
2023-02-15T06:08:45.562Z,1.72
2023-02-15T06:11:16.078Z,1.90
2023-02-15T06:13:50.248Z,1.98
2023-02-15T06:16:18.543Z,1.17
2023-02-15T06:18:46.282Z,2.01
2023-02-15T06:21:14.521Z,1.96
2023-02-15T06:23:52.545Z,1.96
2023-02-15T06:26:49.453Z,2.06
2023-02-15T06:29:19.524Z,1.99
2023-02-15T06:31:47.476Z,2.25
2023-02-15T06:34:17.922Z,1.98
2023-02-15T06:36:45.644Z,1.69
2023-02-15T06:39:15.981Z,1.77
2023-02-15T06:41:43.954Z,1.29
2023-02-15T06:44:19.270Z,0.97
2023-02-15T06:46:47.241Z,1.36
2023-02-15T06:49:15.020Z,1.79
2023-02-15T06:51:43.134Z,1.80
2023-02-15T06:54:15.480Z,1.75
2023-02-15T06:56:46.953Z,2.36
2023-02-15T06:59:17.886Z,1.97
2023-02-15T07:01:48.931Z,2.37
2023-02-15T07:04:17.113Z,2.36
2023-02-15T07:06:45.013Z,2.77
2023-02-15T07:09:15.709Z,2.09
2023-02-15T07:12:03.805Z,2.74
2023-02-15T07:14:31.504Z,2.83
2023-02-15T07:16:59.183Z,2.76
2023-02-15T07:19:26.930Z,2.25
2023-02-15T07:21:55.935Z,2.55
2023-02-15T07:24:23.868Z,2.61
2023-02-15T07:26:51.601Z,3.02
2023-02-15T07:29:19.736Z,2.87
2023-02-15T07:31:47.480Z,3.23
2023-02-15T07:34:17.895Z,2.50
2023-02-15T07:36:46.684Z,3.07
2023-02-15T07:39:14.348Z,2.24
2023-02-15T07:41:42.076Z,2.78
2023-02-15T07:44:15.476Z,2.63
2023-02-15T07:46:43.320Z,2.83
2023-02-15T07:49:11.190Z,2.25
2023-02-15T07:51:39.096Z,3.12
2023-02-15T07:54:06.852Z,3.27
2023-02-15T07:56:37.019Z,2.46
2023-02-15T07:59:06.036Z,2.90
2023-02-15T08:01:37.234Z,2.63
2023-02-15T08:04:08.177Z,2.87
2023-02-15T08:06:37.931Z,3.15
2023-02-15T08:09:08.415Z,2.90
2023-02-15T08:11:42.477Z,3.36
2023-02-15T08:14:23.076Z,3.56
2023-02-15T08:16:57.218Z,3.53
2023-02-15T08:19:33.497Z,2.89
2023-02-15T08:22:07.291Z,3.38
2023-02-15T08:24:40.753Z,3.74
2023-02-15T08:27:12.027Z,3.94
2023-02-15T08:29:40.598Z,3.97
2023-02-15T08:32:14.003Z,3.90
2023-02-15T08:34:43.090Z,3.72
2023-02-15T08:37:10.956Z,3.86
2023-02-15T08:39:38.794Z,4.38
2023-02-15T08:42:06.469Z,4.30
2023-02-15T08:44:34.232Z,4.37
2023-02-15T08:47:05.216Z,4.45
2023-02-15T08:49:33.507Z,4.62
2023-02-15T08:52:02.951Z,4.72
2023-02-15T08:54:30.808Z,4.68
2023-02-15T08:56:58.738Z,5.01
2023-02-15T08:59:27.899Z,5.01
2023-02-15T09:01:56.318Z,5.09
2023-02-15T09:04:24.397Z,5.22
2023-02-15T09:06:53.341Z,5.15
2023-02-15T09:09:23.582Z,5.18
2023-02-15T09:11:57.701Z,5.50
2023-02-15T09:14:28.050Z,5.25
2023-02-15T09:16:58.805Z,5.32
2023-02-15T09:19:26.694Z,5.39
2023-02-15T09:21:55.078Z,5.47
2023-02-15T09:24:26.172Z,5.39
2023-02-15T09:26:54.029Z,6.01
2023-02-15T09:29:23.736Z,5.92
2023-02-15T09:31:52.530Z,5.81
2023-02-15T09:34:22.834Z,6.13
2023-02-15T09:36:51.939Z,5.51
2023-02-15T09:39:26.132Z,6.21
2023-02-15T09:41:56.734Z,6.42
2023-02-15T09:45:18.988Z,6.46
2023-02-15T09:48:08.193Z,6.60
2023-02-15T09:51:09.541Z,6.44
2023-02-15T09:54:14.712Z,6.67
2023-02-15T09:57:00.387Z,6.66
2023-02-15T10:00:05.123Z,7.02
2023-02-15T10:03:06.182Z,6.93
2023-02-15T10:06:12.250Z,7.32
2023-02-15T10:08:49.286Z,7.30
2023-02-15T10:11:42.723Z,7.51
2023-02-15T10:14:50.408Z,7.54
2023-02-15T10:17:55.994Z,7.61
2023-02-15T10:20:57.783Z,6.97
2023-02-15T10:23:48.937Z,7.34
2023-02-15T10:26:42.763Z,6.92
2023-02-15T10:29:20.760Z,7.27
2023-02-15T10:32:17.801Z,7.70
2023-02-15T10:34:55.452Z,8.10
2023-02-15T10:37:58.173Z,8.32
2023-02-15T10:40:37.900Z,8.12
2023-02-15T10:43:27.119Z,7.87
2023-02-15T10:46:17.143Z,8.09
2023-02-15T10:49:19.847Z,8.89
2023-02-15T10:52:08.233Z,9.26
2023-02-15T10:55:10.133Z,7.55
2023-02-15T10:58:04.724Z,7.65
2023-02-15T11:00:41.092Z,5.86
2023-02-15T11:03:43.164Z,5.05
2023-02-15T11:06:17.649Z,5.43
2023-02-15T11:08:50.847Z,4.69
2023-02-15T11:11:28.680Z,3.71
2023-02-15T11:14:05.064Z,2.78
2023-02-15T11:16:41.724Z,3.14
2023-02-15T11:19:29.683Z,4.23
2023-02-15T11:22:10.114Z,4.52
2023-02-15T11:24:47.111Z,4.40
2023-02-15T11:27:54.783Z,4.86
2023-02-15T11:30:47.260Z,5.00
2023-02-15T11:33:39.877Z,3.95
2023-02-15T11:36:29.266Z,3.82
2023-02-15T11:40:08.434Z,3.66
2023-02-15T11:42:30.070Z,3.35
2023-02-15T11:45:59.928Z,4.79
2023-02-15T11:48:37.758Z,5.18
2023-02-15T11:51:20.807Z,6.01
2023-02-15T11:53:57.566Z,6.42
2023-02-15T11:56:27.974Z,5.75
2023-02-15T11:59:03.403Z,5.00
2023-02-15T12:02:16.228Z,4.12
2023-02-15T12:04:56.472Z,4.15
2023-02-15T12:07:49.656Z,4.65
2023-02-15T12:11:17.666Z,5.77
2023-02-15T12:14:27.299Z,6.29
2023-02-15T12:17:11.012Z,7.04
2023-02-15T12:19:56.101Z,6.86
2023-02-15T12:22:48.476Z,6.73
2023-02-15T12:25:54.101Z,6.69
2023-02-15T12:28:58.874Z,7.19
2023-02-15T12:31:41.057Z,8.35
2023-02-15T12:34:30.331Z,8.79
2023-02-15T12:37:23.689Z,8.90
2023-02-15T12:40:26.657Z,9.38
2023-02-15T12:43:16.604Z,8.79
2023-02-15T12:45:48.631Z,9.13
2023-02-15T12:48:20.867Z,9.23
2023-02-15T12:50:55.142Z,9.58
2023-02-15T12:53:39.409Z,10.00
2023-02-15T12:56:11.016Z,9.97
2023-02-15T12:58:43.168Z,9.59
2023-02-15T13:01:26.695Z,9.80
2023-02-15T13:04:02.394Z,9.55
2023-02-15T13:06:50.399Z,10.31
2023-02-15T13:09:39.420Z,10.14
2023-02-15T13:12:30.341Z,9.70
2023-02-15T13:15:48.945Z,10.10
2023-02-15T13:18:47.822Z,10.90
2023-02-15T13:21:28.688Z,10.34
2023-02-15T13:24:34.534Z,10.92
2023-02-15T13:27:15.574Z,10.51
2023-02-15T13:30:03.463Z,10.49
2023-02-15T13:32:43.246Z,10.42
2023-02-15T13:35:26.875Z,11.29
2023-02-15T13:38:39.017Z,10.68
2023-02-15T13:41:14.486Z,11.39
2023-02-15T13:44:11.071Z,11.24
2023-02-15T13:47:17.198Z,11.44
2023-02-15T13:50:32.215Z,11.47
2023-02-15T13:53:08.855Z,11.21
2023-02-15T13:55:37.908Z,11.62
2023-02-15T13:58:43.515Z,10.16
2023-02-15T14:01:34.521Z,10.63
2023-02-15T14:04:27.394Z,10.62
2023-02-15T14:07:29.592Z,10.33
2023-02-15T14:10:18.633Z,10.10
2023-02-15T14:13:29.187Z,10.76
2023-02-15T14:17:10.612Z,11.20
2023-02-15T14:20:51.864Z,11.10
2023-02-15T14:24:06.958Z,10.08
2023-02-15T14:27:18.897Z,11.02
2023-02-15T14:29:59.311Z,10.32
2023-02-15T14:32:46.135Z,11.07
2023-02-15T14:35:30.211Z,11.05
2023-02-15T14:38:16.357Z,11.38
2023-02-15T14:41:03.211Z,11.39
2023-02-15T14:43:56.766Z,10.36
2023-02-15T14:46:57.025Z,10.67
2023-02-15T14:49:36.753Z,10.98
2023-02-15T14:52:09.292Z,10.95
2023-02-15T14:54:36.969Z,11.34
2023-02-15T14:57:06.682Z,10.07
2023-02-15T14:59:58.299Z,9.76
2023-02-15T15:02:28.949Z,8.46
2023-02-15T15:05:36.640Z,7.16
2023-02-15T15:08:07.642Z,6.29
2023-02-15T15:10:45.979Z,6.78
2023-02-15T15:13:32.147Z,7.18
2023-02-15T15:16:49.514Z,6.78
2023-02-15T15:19:53.725Z,8.12
2023-02-15T15:22:26.821Z,7.24
2023-02-15T15:25:05.755Z,7.52
2023-02-15T15:27:58.554Z,9.19
2023-02-15T15:30:26.567Z,9.47
2023-02-15T15:33:04.816Z,9.29
2023-02-15T15:36:33.025Z,10.54
2023-02-15T15:39:48.162Z,10.01
2023-02-15T15:42:59.192Z,10.09
2023-02-15T15:45:57.663Z,10.24
2023-02-15T15:48:34.969Z,10.09
2023-02-15T15:51:21.593Z,10.42
2023-02-15T15:53:54.161Z,10.72
2023-02-15T15:56:32.542Z,10.17
2023-02-15T15:59:21.158Z,9.41
2023-02-15T16:01:50.299Z,8.83
2023-02-15T16:04:33.734Z,8.69
2023-02-15T16:07:19.344Z,8.20
2023-02-15T16:10:20.606Z,8.33
2023-02-15T16:13:01.307Z,8.04
2023-02-15T16:15:49.725Z,8.39
2023-02-15T16:18:20.238Z,8.19
2023-02-15T16:21:17.299Z,7.86
2023-02-15T16:24:03.666Z,8.31
2023-02-15T16:27:07.345Z,8.15
2023-02-15T16:29:35.773Z,7.62
2023-02-15T16:32:38.526Z,7.26
2023-02-15T16:35:19.849Z,6.95
2023-02-15T16:37:48.198Z,6.76
2023-02-15T16:40:25.233Z,7.23
2023-02-15T16:43:02.831Z,7.65
2023-02-15T16:45:34.562Z,7.40
2023-02-15T16:48:25.085Z,7.29
2023-02-15T16:50:58.993Z,7.74
2023-02-15T16:53:30.559Z,7.59
2023-02-15T16:56:07.463Z,7.44
2023-02-15T16:58:47.108Z,7.43
2023-02-15T17:01:30.903Z,7.79
2023-02-15T17:04:29.655Z,7.88
2023-02-15T17:07:21.045Z,7.79
2023-02-15T17:09:57.235Z,7.88
2023-02-15T17:12:47.070Z,7.80
2023-02-15T17:15:30.168Z,7.65
2023-02-15T17:18:24.265Z,7.60
2023-02-15T17:20:55.783Z,7.51
2023-02-15T17:23:39.412Z,7.51
2023-02-15T17:26:29.251Z,7.49
2023-02-15T17:29:10.865Z,7.34
2023-02-15T17:31:39.134Z,7.41
2023-02-15T17:34:14.244Z,7.44
2023-02-15T17:37:00.283Z,7.08
2023-02-15T17:39:28.284Z,7.15
2023-02-15T17:41:56.928Z,6.98
2023-02-15T17:44:25.115Z,7.06
2023-02-15T17:46:53.322Z,6.81
2023-02-15T17:49:29.330Z,6.51
2023-02-15T17:51:59.697Z,6.87
2023-02-15T17:54:45.852Z,6.92
2023-02-15T17:57:15.768Z,6.79
2023-02-15T18:00:05.744Z,6.83
2023-02-15T18:02:58.663Z,6.54
2023-02-15T18:05:44.876Z,6.48
2023-02-15T18:08:35.053Z,6.33
2023-02-15T18:11:26.469Z,5.76
2023-02-15T18:13:59.506Z,5.97
2023-02-15T18:16:33.486Z,6.04
2023-02-15T18:19:13.701Z,5.74
2023-02-15T18:21:42.739Z,5.73
2023-02-15T18:24:24.274Z,6.10
2023-02-15T18:26:54.950Z,6.07
2023-02-15T18:29:25.601Z,6.04
2023-02-15T18:31:57.947Z,5.95
2023-02-15T18:34:34.138Z,5.99
2023-02-15T18:37:05.966Z,5.83
2023-02-15T18:39:46.818Z,5.10
2023-02-15T18:42:39.469Z,5.76
2023-02-15T18:45:32.482Z,5.50
2023-02-15T18:48:00.902Z,5.82
2023-02-15T18:50:33.981Z,5.55
2023-02-15T18:53:06.363Z,5.58
2023-02-15T18:55:35.507Z,5.62
2023-02-15T18:58:03.417Z,5.78
2023-02-15T19:00:34.784Z,5.63
2023-02-15T19:03:03.110Z,5.77
2023-02-15T19:05:32.881Z,5.52
2023-02-15T19:08:02.133Z,5.58
2023-02-15T19:10:32.950Z,5.53
2023-02-15T19:13:00.709Z,5.48
2023-02-15T19:15:30.628Z,5.53
2023-02-15T19:17:58.458Z,5.30
2023-02-15T19:20:31.756Z,5.39
2023-02-15T19:23:01.604Z,5.33
2023-02-15T19:25:31.873Z,5.35
2023-02-15T19:28:00.684Z,5.13
2023-02-15T19:30:31.937Z,5.18
2023-02-15T19:33:01.632Z,5.08
2023-02-15T19:35:35.263Z,5.04
2023-02-15T19:38:07.897Z,5.10
2023-02-15T19:40:39.053Z,5.08
2023-02-15T19:43:26.091Z,5.08
2023-02-15T19:45:54.484Z,4.81
2023-02-15T19:48:22.272Z,4.51
2023-02-15T19:50:50.405Z,4.71
2023-02-15T19:53:28.960Z,4.72
2023-02-15T19:55:56.758Z,4.05
2023-02-15T19:58:24.454Z,3.76
2023-02-15T20:00:53.334Z,3.77
2023-02-15T20:03:20.917Z,3.59
2023-02-15T20:05:48.582Z,3.33
2023-02-15T20:08:19.531Z,3.41
2023-02-15T20:10:47.382Z,3.91
2023-02-15T20:13:17.589Z,3.80
2023-02-15T20:15:46.365Z,3.72
2023-02-15T20:18:18.442Z,3.07
2023-02-15T20:20:53.922Z,3.34
2023-02-15T20:23:38.011Z,3.06
2023-02-15T20:26:18.178Z,3.50
2023-02-15T20:28:47.079Z,3.63
2023-02-15T20:31:17.648Z,3.81
2023-02-15T20:33:45.501Z,3.73
2023-02-15T20:36:16.666Z,3.24
2023-02-15T20:38:47.948Z,3.47
2023-02-15T20:41:37.572Z,3.73
2023-02-15T20:44:23.395Z,3.93
2023-02-15T20:46:55.397Z,3.80
2023-02-15T20:49:25.621Z,3.86
2023-02-15T20:51:56.108Z,3.85
2023-02-15T20:54:28.902Z,3.92
2023-02-15T20:56:57.408Z,3.86
2023-02-15T20:59:31.835Z,3.12
2023-02-15T21:02:11.858Z,3.66
2023-02-15T21:04:39.580Z,3.79
2023-02-15T21:07:15.530Z,3.80
2023-02-15T21:09:44.920Z,3.81
2023-02-15T21:12:19.471Z,3.50
2023-02-15T21:14:47.253Z,3.40
2023-02-15T21:17:17.199Z,3.19
2023-02-15T21:19:47.390Z,3.43
2023-02-15T21:22:16.607Z,3.37
2023-02-15T21:24:51.549Z,3.60
2023-02-15T21:27:20.198Z,3.91
2023-02-15T21:29:47.986Z,3.41
2023-02-15T21:32:15.940Z,3.63
2023-02-15T21:34:43.665Z,3.80
2023-02-15T21:37:32.030Z,3.83
2023-02-15T21:40:00.216Z,3.56
2023-02-15T21:42:46.780Z,3.69
2023-02-15T21:45:55.770Z,3.70
2023-02-15T21:48:27.646Z,3.74
2023-02-15T21:51:23.936Z,3.72
2023-02-15T21:54:05.619Z,3.56
2023-02-15T21:56:33.472Z,3.73
2023-02-15T21:59:01.237Z,3.53
2023-02-15T22:01:29.248Z,3.72
2023-02-15T22:03:58.973Z,3.68
2023-02-15T22:06:26.636Z,3.64
2023-02-15T22:09:02.477Z,3.07
2023-02-15T22:11:35.000Z,3.24
2023-02-15T22:14:04.057Z,3.20
2023-02-15T22:16:35.016Z,3.34
2023-02-15T22:19:09.030Z,3.15
2023-02-15T22:21:36.889Z,3.08
2023-02-15T22:24:12.132Z,3.25
2023-02-15T22:34:05.059Z,2.88
2023-02-15T22:36:34.142Z,2.93
2023-02-15T22:44:01.594Z,2.60
2023-02-15T22:46:30.132Z,2.63
2023-02-15T22:48:58.562Z,2.51
2023-02-15T22:51:32.716Z,2.81
2023-02-15T22:54:04.932Z,2.79
2023-02-15T22:56:40.168Z,2.70
2023-02-15T22:59:26.452Z,2.63
2023-02-15T23:01:56.126Z,2.67
2023-02-15T23:04:29.675Z,2.61
2023-02-15T23:07:00.907Z,2.52
2023-02-15T23:09:28.793Z,2.41
2023-02-15T23:11:57.276Z,2.01
2023-02-15T23:14:36.550Z,2.32
2023-02-15T23:17:04.398Z,2.47
2023-02-15T23:19:32.681Z,2.19
2023-02-15T23:22:00.448Z,2.44
2023-02-15T23:24:34.469Z,2.50
2023-02-15T23:27:20.904Z,2.46
2023-02-15T23:29:48.709Z,2.54
2023-02-15T23:32:16.542Z,2.56
2023-02-15T23:34:44.320Z,2.52
2023-02-15T23:37:15.505Z,2.40
2023-02-15T23:40:01.466Z,2.56
2023-02-15T23:42:36.227Z,2.16
2023-02-15T23:45:21.423Z,2.26
2023-02-15T23:48:11.817Z,2.23
2023-02-15T23:50:39.589Z,1.76
2023-02-15T23:53:09.337Z,0.10
2023-02-15T23:55:41.229Z,0.75
2023-02-15T23:58:18.494Z,1.44
